Time;durP1;ratioP1;P1;durP2;ratioP2;P2;SDS_P1;SDS_P2;PMS_P1;PMS_P2;Temp;Humidity;BMP_temperature;BMP_pressure;BME280_temperature;BME280_humidity;BME280_pressure;Samples;Min_cycle;Max_cycle;Signal;HPM_P1;HPM_P2
2023/10/12 00:01:24;;;;;;;10.50;3.55;;;;;;;23.03;63.35;100223.88;8306099;28;20045;-62
2023/10/12 00:05:27;;;;;;;13.18;4.05;;;;;;;23.05;63.15;100229.19;8303975;28;20508;-62
2023/10/12 00:09:28;;;;;;;10.18;3.42;;;;;;;22.98;63.63;100225.66;8303501;28;20045;-63
2023/10/12 00:13:29;;;;;;;10.75;4.05;;;;;;;22.91;64.25;100233.97;8305707;28;20047;-62
2023/10/12 00:17:29;;;;;;;7.55;3.88;;;;;;;22.90;64.09;100228.69;8299368;28;20408;-60
2023/10/12 00:21:35;;;;;;;11.88;4.38;;;;;;;22.82;64.48;100213.31;8303408;28;20424;-60
2023/10/12 00:29:51;;;;;;;8.55;3.17;;;;;;;22.71;64.63;100208.53;8385466;27;20475;-60
2023/10/12 00:33:51;;;;;;;7.38;3.25;;;;;;;22.67;64.81;100218.34;8394266;27;20126;-60
2023/10/12 00:37:54;;;;;;;13.00;3.20;;;;;;;22.65;65.13;100212.19;8398305;27;20028;-61
2023/10/12 00:41:55;;;;;;;13.25;3.58;;;;;;;22.53;65.31;100216.75;8397296;27;20131;-60
2023/10/12 00:45:56;;;;;;;10.57;3.13;;;;;;;22.53;65.30;100199.34;8399667;27;20048;-60
2023/10/12 00:49:59;;;;;;;10.50;3.50;;;;;;;22.48;65.31;100188.97;8395811;27;20476;-60
2023/10/12 00:53:59;;;;;;;12.30;4.03;;;;;;;22.45;65.54;100197.69;8396738;27;20316;-61
2023/10/12 00:58:08;;;;;;;9.00;3.10;;;;;;;22.37;65.48;100206.25;8397362;27;20051;-62
2023/10/12 01:02:10;;;;;;;13.45;3.53;;;;;;;22.49;64.62;100192.59;8399448;27;20045;-63
2023/10/12 01:10:29;;;;;;;11.85;3.65;;;;;;;22.50;63.61;100181.38;8387567;27;20740;-60
2023/10/12 01:14:31;;;;;;;8.23;3.22;;;;;;;22.46;63.38;100182.88;8359647;28;20041;-61
2023/10/12 01:18:31;;;;;;;14.80;3.65;;;;;;;22.42;63.23;100170.59;8365833;28;20277;-62
2023/10/12 01:22:32;;;;;;;8.60;3.30;;;;;;;22.30;64.29;100186.19;8363015;28;20033;-63
2023/10/12 01:26:33;;;;;;;17.50;3.85;;;;;;;22.18;64.93;100200.91;8363060;28;20523;-63
2023/10/12 01:30:36;;;;;;;7.85;3.72;;;;;;;22.04;65.83;100210.31;8359997;28;20507;-63
2023/10/12 01:34:36;;;;;;;8.68;3.45;;;;;;;22.03;65.88;100220.50;8360510;28;20041;-62
2023/10/12 01:38:37;;;;;;;7.93;3.10;;;;;;;21.96;66.30;100219.66;8363865;28;20132;-62
2023/10/12 01:46:53;;;;;;;11.40;3.30;;;;;;;21.86;66.17;100227.56;8385063;27;20763;-61
2023/10/12 01:50:55;;;;;;;12.55;3.42;;;;;;;21.90;65.20;100234.34;8361338;28;20342;-61
2023/10/12 01:54:58;;;;;;;15.90;3.80;;;;;;;21.96;65.38;100252.72;8365676;28;20039;-61
2023/10/12 01:59:00;;;;;;;16.67;3.17;;;;;;;21.91;65.42;100273.72;8362076;28;20037;-62
2023/10/12 02:03:11;;;;;;;8.38;3.50;;;;;;;21.88;65.19;100279.66;8360284;28;20041;-61
2023/10/12 02:07:12;;;;;;;10.65;3.33;;;;;;;21.83;65.72;100272.06;8365134;28;20055;-60
2023/10/12 02:15:20;;;;;;;6.43;3.28;;;;;;;21.68;67.03;100293.47;8364893;28;20036;-60
2023/10/12 02:19:31;;;;;;;8.20;3.30;;;;;;;21.63;66.99;100309.81;8365230;28;20495;-62
2023/10/12 02:23:36;;;;;;;11.90;4.28;;;;;;;21.55;67.23;100310.03;8362260;28;20037;-62
2023/10/12 02:27:41;;;;;;;9.70;4.07;;;;;;;21.65;66.74;100304.91;8363664;28;20499;-60
2023/10/12 02:31:54;;;;;;;15.32;4.25;;;;;;;21.46;69.11;100316.84;8376787;28;20043;-60
2023/10/12 02:35:54;;;;;;;14.63;3.97;;;;;;;21.28;69.45;100325.75;8380587;28;20036;-60
2023/10/12 02:39:56;;;;;;;9.32;4.88;;;;;;;21.21;70.79;100332.34;8380496;28;20123;-63
2023/10/12 02:44:11;;;;;;;10.27;3.63;;;;;;;21.06;72.18;100345.47;8376487;28;20455;-63
2023/10/12 02:48:22;;;;;;;12.45;4.82;;;;;;;21.02;72.19;100352.44;8377304;28;20033;-61
2023/10/12 02:52:24;;;;;;;9.68;4.10;;;;;;;21.00;72.74;100338.06;8380445;28;20033;-61
2023/10/12 02:56:25;;;;;;;9.70;4.45;;;;;;;21.00;73.02;100329.81;8367987;28;20064;-61
2023/10/12 03:04:55;;;;;;;10.65;3.90;;;;;;;20.69;75.51;100302.94;8385483;27;20467;-61
2023/10/12 03:09:13;;;;;;;16.02;5.63;;;;;;;20.72;75.44;100318.16;8382016;27;20040;-61
2023/10/12 03:13:25;;;;;;;8.63;4.78;;;;;;;20.81;75.24;100377.34;8403819;27;20040;-61
2023/10/12 03:17:26;;;;;;;9.32;4.57;;;;;;;20.76;76.09;100364.25;8379933;28;20117;-62
2023/10/12 03:21:27;;;;;;;12.23;5.05;;;;;;;20.58;77.95;100350.25;8378591;27;20189;-62
2023/10/12 03:25:43;;;;;;;13.80;5.75;;;;;;;20.44;78.85;100320.25;8380000;27;20056;-62
2023/10/12 03:29:43;;;;;;;11.88;4.93;;;;;;;20.33;81.96;100296.13;8380012;27;20043;-60
2023/10/12 03:33:46;;;;;;;12.90;5.43;;;;;;;20.05;83.11;100303.63;8379401;27;20043;-60
2023/10/12 03:37:50;;;;;;;8.20;5.00;;;;;;;19.92;83.54;100300.84;8375991;27;20029;-60
2023/10/12 03:46:17;;;;;;;13.75;6.07;;;;;;;20.02;83.41;100282.09;8403184;27;20389;-59
2023/10/12 03:50:19;;;;;;;;;;;;;;;20.09;84.07;100263.72;8397014;28;20076;-60
2023/10/12 03:54:26;;;;;;;9.57;5.80;;;;;;;20.10;84.13;100251.72;8399389;28;19977;-60
2023/10/12 03:58:27;;;;;;;11.73;5.03;;;;;;;20.13;84.52;100234.88;8394823;28;20495;-60
2023/10/12 04:02:28;;;;;;;9.63;5.55;;;;;;;20.13;84.15;100229.38;8384984;28;20040;-61
2023/10/12 04:06:54;;;;;;;12.18;6.03;;;;;;;20.06;83.91;100234.00;8397167;28;20116;-61
2023/10/12 04:11:50;;;;;;;11.07;5.60;;;;;;;20.17;83.82;100236.13;8388579;28;20044;-60
2023/10/12 04:15:26;;;;;;;11.27;5.70;;;;;;;20.11;83.51;100232.28;8395753;28;20043;-60
2023/10/12 04:19:32;;;;;;;15.90;5.28;;;;;;;20.15;82.09;100244.56;8391577;28;20042;-62
2023/10/12 04:31:49;;;;;;;11.63;5.28;;;;;;;20.06;81.91;100319.91;8328899;27;20419;-60
2023/10/12 04:40:30;;;;;;;9.35;5.82;;;;;;;20.19;81.09;100344.66;8394474;27;20361;-61
2023/10/12 04:48:41;;;;;;;17.30;5.72;;;;;;;20.06;83.75;100347.34;8314453;28;20553;-62
2023/10/12 04:53:06;;;;;;;;;;;;;;;19.86;86.06;100337.34;8305723;28;20034;-60
2023/10/12 05:01:19;;;;;;;15.20;6.05;;;;;;;19.63;88.67;100331.31;8299893;28;20365;-62
2023/10/12 05:09:26;;;;;;;15.88;6.97;;;;;;;19.23;90.51;100322.84;8296875;28;20030;-62
2023/10/12 05:13:27;;;;;;;18.55;6.43;;;;;;;19.04;93.13;100331.78;8287433;28;20527;-62
2023/10/12 05:17:27;;;;;;;13.10;6.60;;;;;;;19.07;92.23;100331.38;8299088;28;20499;-62
2023/10/12 05:21:28;;;;;;;15.55;6.72;;;;;;;18.94;92.85;100331.25;8294725;28;20057;-62
2023/10/12 05:25:38;;;;;;;13.57;7.47;;;;;;;18.91;93.57;100341.78;8295007;28;20500;-62
2023/10/12 05:29:38;;;;;;;14.90;6.93;;;;;;;18.80;94.81;100356.88;8295080;28;20049;-62
2023/10/12 05:33:43;;;;;;;15.20;6.50;;;;;;;18.65;95.89;100342.41;8290649;28;20125;-62
2023/10/12 05:37:51;;;;;;;11.70;6.15;;;;;;;18.68;97.26;100361.19;8276028;28;20108;-62
2023/10/12 05:41:56;;;;;;;16.55;6.25;;;;;;;18.59;97.19;100345.94;8295591;28;20092;-62
2023/10/12 05:46:03;;;;;;;15.13;6.07;;;;;;;18.55;97.77;100339.16;8293308;28;20518;-62
2023/10/12 05:50:05;;;;;;;19.88;6.57;;;;;;;18.46;99.77;100343.06;8297347;28;20046;-61
2023/10/12 05:54:07;;;;;;;17.40;7.22;;;;;;;18.47;100.00;100360.31;8297540;28;20527;-61
2023/10/12 05:58:15;;;;;;;13.00;6.97;;;;;;;18.46;100.00;100359.50;8290405;28;20053;-62
2023/10/12 06:02:19;;;;;;;12.88;7.22;;;;;;;18.39;100.00;100358.56;8286439;28;20411;-62
2023/10/12 06:06:20;;;;;;;15.53;6.77;;;;;;;18.40;100.00;100363.00;8297249;28;20542;-62
2023/10/12 06:10:23;;;;;;;19.90;7.53;;;;;;;18.61;100.00;100373.97;8286443;28;20044;-62
2023/10/12 06:14:23;;;;;;;17.67;7.20;;;;;;;18.73;100.00;100377.84;8268402;28;20041;-61
2023/10/12 06:18:30;;;;;;;16.75;6.78;;;;;;;18.46;100.00;100381.41;8272104;28;20042;-61
2023/10/12 06:22:33;;;;;;;14.63;7.85;;;;;;;18.35;100.00;100379.13;8267677;28;20052;-63
2023/10/12 06:26:34;;;;;;;15.00;7.40;;;;;;;18.36;100.00;100386.28;8275525;28;20084;-63
2023/10/12 06:30:35;;;;;;;13.13;6.95;;;;;;;18.26;100.00;100385.75;8271650;28;20075;-63
2023/10/12 06:34:35;;;;;;;14.65;7.57;;;;;;;18.32;100.00;100393.19;8274446;28;20507;-63
2023/10/12 06:38:39;;;;;;;14.32;7.65;;;;;;;18.32;100.00;100401.41;8272749;28;20447;-63
2023/10/12 06:42:44;;;;;;;14.60;6.93;;;;;;;18.42;100.00;100407.44;8267748;28;20101;-63
2023/10/12 06:46:46;;;;;;;20.85;7.50;;;;;;;18.49;100.00;100402.91;8272916;28;20064;-63
2023/10/12 06:50:53;;;;;;;12.18;7.13;;;;;;;18.37;100.00;100404.47;8272038;28;20397;-63
2023/10/12 06:54:59;;;;;;;24.92;8.15;;;;;;;18.32;100.00;100417.84;8271386;28;20038;-63
2023/10/12 06:59:35;;;;;;;22.13;8.02;;;;;;;18.29;100.00;100412.75;8267354;28;20469;-63
2023/10/12 07:03:22;;;;;;;12.55;7.55;;;;;;;18.35;100.00;100414.72;8268016;28;20054;-63
2023/10/12 07:07:29;;;;;;;20.02;7.32;;;;;;;18.37;100.00;100420.88;8272161;28;20504;-63
2023/10/12 07:11:30;;;;;;;23.33;7.80;;;;;;;18.41;100.00;100413.97;8273312;28;20504;-61
2023/10/12 07:15:32;;;;;;;17.02;7.65;;;;;;;18.44;100.00;100432.75;8269117;28;20411;-62
2023/10/12 07:19:34;;;;;;;17.83;7.75;;;;;;;18.53;100.00;100442.56;8270463;28;20057;-61
2023/10/12 07:23:36;;;;;;;14.13;7.43;;;;;;;18.64;100.00;100444.78;8268657;28;20045;-61
2023/10/12 07:27:49;;;;;;;13.95;7.32;;;;;;;18.84;100.00;100455.94;8269543;28;20088;-61
2023/10/12 07:31:50;;;;;;;13.60;6.78;;;;;;;18.87;100.00;100456.41;8266483;28;20485;-63
2023/10/12 07:35:53;;;;;;;16.10;6.40;;;;;;;18.85;100.00;100455.72;8271051;28;20041;-63
2023/10/12 07:39:55;;;;;;;12.48;6.78;;;;;;;18.88;100.00;100454.53;8272091;28;20034;-63
2023/10/12 07:43:55;;;;;;;13.55;7.13;;;;;;;18.96;100.00;100444.28;8244571;28;20347;-60
2023/10/12 07:47:58;;;;;;;14.10;7.00;;;;;;;18.94;100.00;100429.91;8238084;28;20118;-60
2023/10/12 07:52:22;;;;;;;12.73;6.80;;;;;;;19.00;100.00;100445.56;8261103;28;20048;-62
2023/10/12 07:56:22;;;;;;;14.10;6.95;;;;;;;19.02;100.00;100448.97;8269386;28;20302;-63
2023/10/12 08:00:33;;;;;;;17.27;6.68;;;;;;;19.02;100.00;100459.94;8268280;28;20113;-62
2023/10/12 08:04:34;;;;;;;16.75;7.63;;;;;;;19.14;100.00;100441.91;8261079;28;20092;-62
2023/10/12 08:08:35;;;;;;;21.05;7.45;;;;;;;19.13;100.00;100456.63;8269564;28;20046;-62
2023/10/12 08:12:36;;;;;;;15.45;7.50;;;;;;;19.21;100.00;100456.50;8270469;28;20046;-60
2023/10/12 08:16:40;;;;;;;14.13;7.25;;;;;;;19.28;99.33;100449.22;8267244;28;20085;-60
2023/10/12 08:20:52;;;;;;;17.83;7.40;;;;;;;19.39;98.40;100439.59;8265628;28;20496;-61
2023/10/12 08:24:56;;;;;;;11.05;7.13;;;;;;;19.39;98.56;100440.47;8269411;28;20042;-61
2023/10/12 08:28:57;;;;;;;16.40;7.38;;;;;;;19.42;98.69;100456.53;8269691;28;20042;-61
2023/10/12 08:32:59;;;;;;;13.55;7.78;;;;;;;19.45;98.16;100455.25;8266679;28;20050;-60
2023/10/12 08:41:56;;;;;;;14.18;7.50;;;;;;;19.48;98.40;100450.25;8398005;27;20394;-61
2023/10/12 08:45:53;;;;;;;15.65;7.60;;;;;;;19.54;98.11;100447.75;8393517;28;20573;-60
2023/10/12 08:49:53;;;;;;;18.73;7.28;;;;;;;19.64;97.56;100448.25;8395090;28;20047;-61
2023/10/12 08:53:57;;;;;;;16.38;7.10;;;;;;;19.58;98.41;100443.56;8395283;28;20064;-59
2023/10/12 08:58:31;;;;;;;15.13;8.07;;;;;;;19.61;98.03;100432.19;8396511;28;20048;-59
2023/10/12 09:02:32;;;;;;;14.40;7.72;;;;;;;19.56;98.99;100427.28;8393368;28;20464;-60
2023/10/12 09:15:29;;;;;;;12.80;8.00;;;;;;;19.76;97.74;100435.66;8387153;27;20384;-60
2023/10/12 09:19:31;;;;;;;13.18;7.65;;;;;;;19.86;97.37;100444.38;8373927;28;20164;-60
2023/10/12 09:23:46;;;;;;;16.80;7.68;;;;;;;19.90;96.04;100432.78;8377110;27;20123;-62
2023/10/12 09:27:49;;;;;;;20.15;8.23;;;;;;;19.97;96.38;100439.16;8379036;28;20062;-62
2023/10/12 09:32:15;;;;;;;13.45;7.50;;;;;;;19.96;96.75;100453.94;8380494;27;20048;-61
2023/10/12 09:36:19;;;;;;;12.95;7.80;;;;;;;20.07;96.08;100449.78;8375406;27;20048;-61
2023/10/12 09:40:32;;;;;;;14.57;7.30;;;;;;;20.13;95.66;100443.50;8374829;27;20410;-61
2023/10/12 09:44:37;;;;;;;14.93;7.20;;;;;;;20.44;93.82;100427.34;8375327;28;20060;-60
2023/10/12 09:48:40;;;;;;;15.30;6.60;;;;;;;20.50;93.39;100434.78;8374973;27;20486;-61
2023/10/12 09:52:46;;;;;;;17.27;6.28;;;;;;;20.74;90.80;100431.47;8372959;27;20037;-60
2023/10/12 09:56:57;;;;;;;12.52;6.38;;;;;;;20.87;90.76;100415.00;8377847;28;20048;-60
2023/10/12 10:02:10;;;;;;;12.45;5.72;;;;;;;21.04;89.30;100432.78;8391421;27;20067;-60
2023/10/12 10:13:46;;;;;;;8.82;5.18;;;;;;;21.67;84.08;100434.91;8372294;27;20086;-59
2023/10/12 10:17:53;;;;;;;11.38;5.47;;;;;;;21.92;81.13;100413.91;8372588;27;20143;-60
2023/10/12 10:22:14;;;;;;;11.85;5.68;;;;;;;21.84;83.28;100425.16;8374751;27;20032;-60
2023/10/12 10:26:17;;;;;;;10.35;4.93;;;;;;;22.21;80.39;100429.91;8370341;28;20467;-60
2023/10/12 10:30:24;;;;;;;8.90;5.43;;;;;;;22.45;79.62;100429.16;8404760;28;20037;-60
2023/10/12 10:34:25;;;;;;;10.43;4.78;;;;;;;22.84;77.99;100445.50;8369983;28;20499;-60
2023/10/12 10:38:32;;;;;;;10.88;5.20;;;;;;;23.41;74.39;100430.69;8372508;28;20453;-60
2023/10/12 10:42:32;;;;;;;10.38;5.15;;;;;;;23.31;74.13;100440.53;8354929;28;20120;-60
2023/10/12 10:46:33;;;;;;;9.05;4.90;;;;;;;23.07;75.28;100434.75;8354537;28;20040;-60
2023/10/12 10:50:40;;;;;;;11.40;5.07;;;;;;;22.85;76.42;100430.69;8352904;28;20519;-59
2023/10/12 10:54:56;;;;;;;14.73;5.30;;;;;;;22.95;76.48;100436.53;8349893;28;20071;-60
2023/10/12 10:58:59;;;;;;;12.90;4.93;;;;;;;22.94;76.01;100423.81;8346113;28;20044;-60
2023/10/12 11:03:03;;;;;;;17.73;5.43;;;;;;;22.96;77.21;100421.69;8368922;28;20050;-60
2023/10/12 11:07:06;;;;;;;;;;;;;;;23.14;75.32;100410.72;8372687;28;20047;-61
2023/10/12 11:15:11;;;;;;;11.85;4.57;;;;;;;23.15;76.62;100412.41;8354974;28;20293;-61
2023/10/12 11:19:12;;;;;;;11.77;4.88;;;;;;;23.27;75.35;100412.56;8355113;28;20036;-61
2023/10/12 11:23:13;;;;;;;8.00;4.72;;;;;;;23.28;76.43;100396.84;8352492;28;20037;-60
2023/10/12 11:27:29;;;;;;;12.30;4.63;;;;;;;23.42;75.32;100403.94;8352972;28;20047;-59
2023/10/12 11:31:31;;;;;;;7.60;3.88;;;;;;;23.48;75.05;100376.25;8349841;28;20127;-61
2023/10/12 11:35:33;;;;;;;7.88;4.25;;;;;;;23.37;75.12;100371.50;8348720;28;20227;-60
2023/10/12 11:39:43;;;;;;;11.63;4.55;;;;;;;23.36;75.60;100356.00;8354712;28;20407;-61
2023/10/12 11:43:49;;;;;;;13.45;5.07;;;;;;;23.32;76.33;100365.00;8353609;28;20067;-61
2023/10/12 11:47:50;;;;;;;10.77;4.05;;;;;;;23.45;75.78;100359.34;8354449;28;20051;-61
2023/10/12 11:51:50;;;;;;;8.88;3.85;;;;;;;23.44;73.97;100358.47;8350947;28;20037;-61
2023/10/12 11:56:02;;;;;;;12.05;4.63;;;;;;;23.39;72.84;100338.16;8352235;28;20606;-61
2023/10/12 12:01:07;;;;;;;9.98;3.95;;;;;;;23.47;73.72;100340.59;8347952;28;20136;-61
2023/10/12 12:04:31;;;;;;;8.10;4.28;;;;;;;23.62;72.58;100350.22;8353138;28;20047;-61
2023/10/12 12:08:32;;;;;;;13.18;3.33;;;;;;;23.71;72.85;100342.47;8351672;28;20055;-60
2023/10/12 12:12:38;;;;;;;11.63;4.47;;;;;;;23.76;71.46;100337.13;8343708;28;20160;-59
2023/10/12 12:16:39;;;;;;;10.77;4.05;;;;;;;23.48;72.48;100336.81;8350749;28;20460;-60
2023/10/12 12:20:39;;;;;;;9.20;3.92;;;;;;;23.33;73.10;100341.84;8343452;28;20059;-59
2023/10/12 12:24:44;;;;;;;8.88;4.00;;;;;;;23.15;74.33;100348.13;8351257;28;20440;-60
2023/10/12 12:28:45;;;;;;;8.52;3.15;;;;;;;22.94;75.45;100357.63;8344341;28;20442;-60
2023/10/12 12:32:45;;;;;;;9.60;3.78;;;;;;;22.71;74.56;100359.28;8354899;28;20033;-60
2023/10/12 12:36:48;;;;;;;9.55;3.70;;;;;;;22.54;74.99;100344.38;8345877;28;20448;-61
2023/10/12 12:40:49;;;;;;;11.10;3.80;;;;;;;22.36;76.18;100358.88;8350118;28;20040;-60
2023/10/12 12:44:50;;;;;;;7.05;3.40;;;;;;;22.20;76.70;100359.34;8353385;28;20056;-61
2023/10/12 12:48:51;;;;;;;10.82;3.72;;;;;;;22.13;78.68;100353.03;8348275;28;20500;-61
2023/10/12 12:52:51;;;;;;;6.75;3.67;;;;;;;21.75;82.76;100348.53;8350169;28;20472;-62
2023/10/12 12:56:53;;;;;;;8.75;3.97;;;;;;;21.32;86.98;100337.19;8352827;28;20041;-63
2023/10/12 13:00:54;;;;;;;10.48;4.30;;;;;;;21.00;90.56;100349.06;8353200;28;20033;-63
2023/10/12 13:04:54;;;;;;;12.98;4.90;;;;;;;20.80;96.50;100359.19;8350713;28;20037;-60
2023/10/12 13:08:55;;;;;;;13.95;6.18;;;;;;;20.63;99.59;100352.38;8352173;28;20036;-60
2023/10/12 13:12:55;;;;;;;14.18;4.75;;;;;;;20.42;98.86;100361.66;8353312;28;20033;-61
2023/10/12 13:16:56;;;;;;;12.82;6.57;;;;;;;20.38;100.00;100362.28;8351782;28;20117;-60
2023/10/12 13:20:57;;;;;;;11.65;5.90;;;;;;;20.39;100.00;100361.22;8347274;28;20116;-60
2023/10/12 13:24:58;;;;;;;12.73;5.40;;;;;;;20.35;100.00;100359.94;8379689;28;20107;-60
2023/10/12 13:29:01;;;;;;;17.98;5.38;;;;;;;20.44;100.00;100375.19;8349654;28;20041;-61
2023/10/12 13:33:03;;;;;;;13.23;5.43;;;;;;;20.61;100.00;100373.72;8351800;28;20036;-60
2023/10/12 13:37:03;;;;;;;7.43;4.30;;;;;;;20.62;97.38;100361.69;8350674;28;20064;-60
2023/10/12 13:41:05;;;;;;;7.22;4.30;;;;;;;20.62;97.61;100362.50;8350441;28;20503;-60
2023/10/12 13:45:06;;;;;;;13.23;3.92;;;;;;;20.85;96.24;100349.25;8349357;28;20124;-60
2023/10/12 13:49:06;;;;;;;8.82;4.50;;;;;;;21.00;95.80;100357.31;8350146;28;20125;-60
2023/10/12 13:53:08;;;;;;;5.82;3.83;;;;;;;21.00;94.73;100354.56;8349913;28;20042;-61
2023/10/12 13:57:11;;;;;;;11.38;4.00;;;;;;;21.04;94.70;100353.06;8351863;28;20033;-61
2023/10/12 14:01:14;;;;;;;7.70;3.80;;;;;;;20.97;94.44;100357.72;8349771;28;20090;-60
2023/10/12 14:05:24;;;;;;;9.02;4.28;;;;;;;20.93;95.11;100367.41;8358176;28;20543;-61
2023/10/12 14:09:27;;;;;;;5.53;4.40;;;;;;;21.01;95.95;100369.97;8352510;28;20522;-61
2023/10/12 14:13:28;;;;;;;11.68;4.57;;;;;;;21.02;94.59;100374.44;8353488;28;20685;-61
2023/10/12 14:17:28;;;;;;;8.50;3.78;;;;;;;21.05;93.28;100371.28;8354399;28;20614;-60
2023/10/12 14:21:29;;;;;;;7.50;3.83;;;;;;;21.06;91.33;100365.56;8351501;28;20048;-60
2023/10/12 14:25:30;;;;;;;7.82;3.67;;;;;;;20.97;89.49;100361.31;8347903;28;20108;-59
2023/10/12 14:29:30;;;;;;;11.32;3.85;;;;;;;20.88;90.97;100357.06;8371159;28;20055;-60
2023/10/12 14:33:31;;;;;;;8.75;3.85;;;;;;;20.87;91.37;100349.03;8370981;28;20402;-59
2023/10/12 14:37:36;;;;;;;8.20;4.40;;;;;;;20.85;90.67;100340.13;8364088;28;20037;-60
2023/10/12 14:41:36;;;;;;;9.23;4.15;;;;;;;20.97;91.04;100332.97;8356358;28;20396;-60
2023/10/12 14:45:43;;;;;;;7.93;4.22;;;;;;;21.00;89.44;100332.56;8362225;28;20355;-62
2023/10/12 14:49:44;;;;;;;7.38;4.03;;;;;;;20.99;89.59;100326.25;8341069;28;20269;-61
2023/10/12 14:53:45;;;;;;;12.23;3.90;;;;;;;21.03;89.43;100316.50;8330761;28;20265;-61
2023/10/12 14:57:49;;;;;;;9.55;3.63;;;;;;;21.03;89.68;100300.00;8336841;28;20443;-61
2023/10/12 15:01:51;;;;;;;6.60;3.35;;;;;;;21.05;88.61;100316.28;8337270;28;20048;-61
2023/10/12 15:05:54;;;;;;;10.13;3.60;;;;;;;21.02;89.48;100328.53;8358532;28;20086;-61
2023/10/12 15:09:55;;;;;;;11.30;4.63;;;;;;;20.92;89.02;100332.75;8336519;28;20033;-61
2023/10/12 15:13:55;;;;;;;7.15;3.63;;;;;;;20.92;89.67;100319.84;8341245;28;20074;-62
2023/10/12 15:17:56;;;;;;;8.77;3.85;;;;;;;20.92;90.83;100335.50;8339452;28;20487;-63
2023/10/12 15:21:56;;;;;;;11.23;4.20;;;;;;;20.73;93.77;100336.31;8341573;28;20173;-62
2023/10/12 15:26:00;;;;;;;10.00;3.97;;;;;;;20.41;96.47;100343.50;8339510;28;20068;-63
2023/10/12 15:30:01;;;;;;;8.98;3.90;;;;;;;20.26;97.99;100345.56;8316723;28;20029;-63
2023/10/12 15:34:02;;;;;;;7.70;3.85;;;;;;;20.12;98.75;100331.94;8340756;28;20715;-60
2023/10/12 15:38:03;;;;;;;10.40;4.43;;;;;;;20.13;100.00;100333.69;8373227;28;20116;-60
2023/10/12 15:42:04;;;;;;;8.85;4.07;;;;;;;20.10;100.00;100328.59;8346605;28;20408;-60
2023/10/12 15:46:11;;;;;;;10.80;4.13;;;;;;;20.17;100.00;100327.59;8350526;28;20033;-61
2023/10/12 15:50:14;;;;;;;11.38;5.10;;;;;;;20.18;100.00;100326.50;8339373;28;20061;-59
2023/10/12 15:54:16;;;;;;;8.80;5.18;;;;;;;20.25;100.00;100321.06;8352040;28;20579;-61
2023/10/12 15:58:16;;;;;;;12.02;5.50;;;;;;;20.33;99.69;100327.19;8352483;28;20368;-61
2023/10/12 16:02:17;;;;;;;19.13;6.68;;;;;;;20.33;98.45;100318.09;8342573;28;20045;-61
2023/10/12 16:06:17;;;;;;;17.58;5.95;;;;;;;20.43;98.54;100326.81;8349480;28;20458;-61
2023/10/12 16:10:18;;;;;;;9.30;4.80;;;;;;;20.54;98.12;100337.16;8351980;28;20049;-61
2023/10/12 16:14:21;;;;;;;13.02;4.50;;;;;;;20.47;96.93;100339.91;8338803;28;20090;-61
2023/10/12 16:18:24;;;;;;;8.35;4.65;;;;;;;20.47;97.62;100347.28;8349697;28;20210;-61
2023/10/12 16:22:29;;;;;;;7.93;4.22;;;;;;;20.50;96.99;100339.50;8347075;28;20045;-61
2023/10/12 16:26:29;;;;;;;10.00;4.20;;;;;;;20.50;97.05;100341.38;8350631;28;20478;-61
2023/10/12 16:30:34;;;;;;;9.70;4.30;;;;;;;20.38;99.15;100343.03;8346333;28;20458;-62
2023/10/12 16:34:34;;;;;;;5.82;3.92;;;;;;;20.25;100.00;100343.03;8335214;28;20392;-61
2023/10/12 16:38:35;;;;;;;10.07;3.67;;;;;;;20.04;100.00;100352.22;8352494;28;20040;-61
2023/10/12 16:42:35;;;;;;;9.43;4.43;;;;;;;20.00;100.00;100344.59;8349362;28;20093;-61
2023/10/12 16:46:36;;;;;;;10.18;4.78;;;;;;;19.94;100.00;100339.94;8350587;28;20033;-63
2023/10/12 16:50:40;;;;;;;14.80;4.40;;;;;;;19.81;100.00;100339.84;8350659;28;20048;-62
2023/10/12 16:54:44;;;;;;;12.10;4.43;;;;;;;19.85;100.00;100338.41;8345455;28;20045;-62
2023/10/12 16:58:44;;;;;;;12.75;4.10;;;;;;;19.94;100.00;100348.16;8345282;28;20095;-63
2023/10/12 17:02:45;;;;;;;10.02;3.88;;;;;;;20.08;100.00;100358.13;8338428;28;20481;-62
2023/10/12 17:06:48;;;;;;;13.38;4.20;;;;;;;20.12;100.00;100351.16;8341380;28;20314;-61
2023/10/12 17:10:49;;;;;;;9.80;4.28;;;;;;;20.07;100.00;100362.75;8347895;28;20103;-61
2023/10/12 17:14:51;;;;;;;9.57;4.30;;;;;;;20.19;100.00;100354.81;8348810;28;20053;-61
2023/10/12 17:18:53;;;;;;;7.63;4.32;;;;;;;20.29;100.00;100350.63;8351521;28;20499;-60
2023/10/12 17:22:53;;;;;;;12.98;4.75;;;;;;;20.40;100.00;100362.91;8346237;28;20514;-61
2023/10/12 17:26:56;;;;;;;9.60;5.32;;;;;;;20.47;100.00;100358.28;8349909;28;20041;-61
2023/10/12 17:31:02;;;;;;;10.50;5.07;;;;;;;20.44;100.00;100364.19;8347459;28;20075;-61
2023/10/12 17:35:04;;;;;;;5.57;4.50;;;;;;;20.46;100.00;100367.59;8349562;28;20045;-61
2023/10/12 17:39:17;;;;;;;12.73;4.97;;;;;;;20.48;100.00;100365.47;8359265;28;20508;-61
2023/10/12 17:43:17;;;;;;;10.23;4.85;;;;;;;20.47;100.00;100369.25;8353553;28;20060;-61
2023/10/12 17:47:18;;;;;;;9.60;5.03;;;;;;;20.59;100.00;100376.66;8354541;28;20052;-60
2023/10/12 17:51:21;;;;;;;10.18;4.85;;;;;;;20.51;100.00;100370.53;8353990;28;20037;-61
2023/10/12 17:55:22;;;;;;;9.23;4.05;;;;;;;20.35;100.00;100380.03;8357318;28;20052;-61
2023/10/12 17:59:23;;;;;;;9.77;4.32;;;;;;;20.37;100.00;100372.41;8370845;28;20041;-62
2023/10/12 18:03:23;;;;;;;8.40;4.80;;;;;;;20.32;100.00;100377.69;8354001;28;20129;-61
2023/10/12 18:07:26;;;;;;;13.23;5.45;;;;;;;20.32;100.00;100377.69;8357646;28;20045;-62
2023/10/12 18:11:27;;;;;;;7.93;4.40;;;;;;;20.32;100.00;100368.59;8355174;28;20332;-61
2023/10/12 18:15:28;;;;;;;8.23;4.22;;;;;;;20.35;100.00;100384.66;8358521;28;20122;-61
2023/10/12 18:19:29;;;;;;;13.75;4.35;;;;;;;20.38;100.00;100381.50;8357203;28;20044;-61
2023/10/12 18:23:30;;;;;;;11.43;4.80;;;;;;;20.42;100.00;100382.75;8368776;28;20282;-62
2023/10/12 18:27:30;;;;;;;9.20;4.13;;;;;;;20.42;100.00;100382.75;8366943;28;20094;-63
2023/10/12 18:31:31;;;;;;;8.88;4.63;;;;;;;20.43;100.00;100393.53;8357080;28;20044;-64
2023/10/12 18:35:31;;;;;;;12.73;5.00;;;;;;;20.43;100.00;100382.56;8356858;28;20045;-61
2023/10/12 18:39:32;;;;;;;8.45;4.55;;;;;;;20.46;100.00;100384.06;8355595;28;20672;-62
2023/10/12 18:43:33;;;;;;;8.05;5.22;;;;;;;20.48;100.00;100382.78;8379800;28;20044;-61
2023/10/12 18:47:34;;;;;;;10.07;4.70;;;;;;;20.50;100.00;100382.59;8354887;28;20090;-62
2023/10/12 18:51:35;;;;;;;10.63;5.80;;;;;;;20.51;100.00;100387.88;8353231;28;20056;-61
2023/10/12 18:55:37;;;;;;;13.07;5.18;;;;;;;20.53;100.00;100396.75;8355274;28;20595;-61
2023/10/12 18:59:38;;;;;;;10.88;4.97;;;;;;;20.54;100.00;100392.09;8352654;28;20045;-61
2023/10/12 19:03:39;;;;;;;12.85;4.93;;;;;;;20.52;100.00;100388.72;8350717;28;20049;-61
2023/10/12 19:07:40;;;;;;;11.80;5.43;;;;;;;20.50;100.00;100396.31;8355700;28;20448;-61
2023/10/12 19:11:41;;;;;;;10.77;5.72;;;;;;;20.60;100.00;100397.63;8347586;28;20404;-61
2023/10/12 19:15:41;;;;;;;10.85;5.50;;;;;;;20.65;100.00;100399.75;8346723;28;20132;-61
2023/10/12 19:19:42;;;;;;;9.60;5.07;;;;;;;20.57;100.00;100397.16;8366650;28;20038;-61
2023/10/12 19:23:43;;;;;;;12.10;6.05;;;;;;;20.52;100.00;100402.47;8352894;28;20041;-62
2023/10/12 19:27:45;;;;;;;10.90;5.45;;;;;;;20.48;100.00;100392.91;8345775;28;20107;-61
2023/10/12 19:31:46;;;;;;;9.80;6.13;;;;;;;20.43;100.00;100389.97;8352918;28;20047;-60
2023/10/12 19:35:47;;;;;;;11.07;5.95;;;;;;;20.38;100.00;100397.97;8383559;28;20040;-61
2023/10/12 19:39:48;;;;;;;10.02;5.93;;;;;;;20.38;100.00;100392.47;8361501;28;20168;-61
2023/10/12 19:43:49;;;;;;;10.68;6.03;;;;;;;20.37;100.00;100394.38;8360285;28;20060;-61
2023/10/12 19:47:49;;;;;;;10.85;6.10;;;;;;;20.29;100.00;100388.22;8358881;28;20522;-60
2023/10/12 19:51:50;;;;;;;11.20;6.45;;;;;;;20.33;100.00;100386.75;8356543;28;20049;-60
2023/10/12 19:55:53;;;;;;;14.85;7.15;;;;;;;20.39;100.00;100394.16;8359612;28;20041;-61